createdAt,value
2023-01-23T00:12:08.825Z,20
2023-01-23T00:27:10.780Z,10
2023-01-23T00:42:12.717Z,0
2023-01-23T00:57:14.644Z,0
2023-01-23T01:12:16.582Z,0
2023-01-23T01:27:18.501Z,0
2023-01-23T01:42:20.526Z,0
2023-01-23T01:57:22.458Z,0
2023-01-23T02:12:24.519Z,0
2023-01-23T02:27:26.426Z,0
2023-01-23T02:42:28.346Z,0
2023-01-23T02:57:30.297Z,0
2023-01-23T03:12:32.487Z,0
2023-01-23T03:27:34.423Z,0
2023-01-23T03:42:36.307Z,0
2023-01-23T03:57:38.285Z,0
2023-01-23T04:12:40.243Z,0
2023-01-23T04:27:42.145Z,0
2023-01-23T04:42:44.083Z,0
2023-01-23T04:57:46.036Z,0
2023-01-23T05:12:47.948Z,0
2023-01-23T05:27:49.955Z,0
2023-01-23T05:42:51.889Z,0
2023-01-23T05:57:53.782Z,0
2023-01-23T06:12:55.725Z,0
2023-01-23T06:27:57.665Z,0
2023-01-23T06:42:59.561Z,0
2023-01-23T06:58:01.446Z,0
2023-01-23T07:13:03.475Z,0
2023-01-23T07:28:05.472Z,0
2023-01-23T07:43:07.422Z,0
2023-01-23T07:58:09.326Z,0
2023-01-23T08:13:11.226Z,0
2023-01-23T08:28:13.144Z,0
2023-01-23T08:43:15.134Z,0
2023-01-23T08:58:17.054Z,0
2023-01-23T09:13:19.048Z,0
2023-01-23T09:28:20.944Z,0
2023-01-23T09:43:22.922Z,0
2023-01-23T09:58:24.899Z,0
2023-01-23T10:13:26.847Z,0
2023-01-23T10:28:28.832Z,0
2023-01-23T10:43:30.760Z,0
2023-01-23T10:58:32.714Z,0
2023-01-23T11:13:34.632Z,0
2023-01-23T11:28:36.592Z,0
2023-01-23T11:43:38.515Z,0
2023-01-23T11:58:49.429Z,0
2023-01-23T12:13:52.142Z,0
2023-01-23T12:28:54.208Z,0
2023-01-23T12:43:56.140Z,0
2023-01-23T12:58:58.103Z,0
2023-01-23T13:14:00.936Z,0
2023-01-23T13:29:04.101Z,0
2023-01-23T13:44:06.121Z,0
2023-01-23T14:31:25.926Z,0
2023-01-23T14:46:28.086Z,0
2023-01-23T15:01:30.089Z,0
2023-01-23T15:16:32.117Z,0
2023-01-23T15:31:34.272Z,0
2023-01-23T15:46:36.275Z,0
2023-01-23T16:01:38.268Z,10
2023-01-23T16:16:40.467Z,10
2023-01-23T16:31:42.635Z,10
2023-01-23T16:46:44.725Z,40
2023-01-23T17:01:46.732Z,70
2023-01-23T17:16:48.794Z,60
2023-01-23T17:31:50.995Z,70
2023-01-23T17:46:53.103Z,80
2023-01-23T18:01:55.104Z,110
2023-01-23T18:16:57.036Z,130
2023-01-23T18:31:59.087Z,130
2023-01-23T18:47:01.129Z,140
2023-01-23T19:02:03.180Z,130
2023-01-23T19:17:05.154Z,190
2023-01-23T19:32:07.354Z,220
2023-01-23T19:47:09.312Z,250
2023-01-23T20:02:11.354Z,240
2023-01-23T20:17:13.490Z,230
2023-01-23T20:32:15.584Z,230
2023-01-23T20:47:17.526Z,180
2023-01-23T21:02:19.435Z,230
2023-01-23T21:17:21.396Z,220
2023-01-23T21:32:23.310Z,210
2023-01-23T21:47:25.252Z,160
2023-01-23T22:02:27.288Z,130
2023-01-23T22:17:29.274Z,150
2023-01-23T22:32:31.168Z,200
2023-01-23T22:47:33.097Z,120
2023-01-23T23:02:35.054Z,80
2023-01-23T23:17:37.054Z,90
2023-01-23T23:32:39.005Z,70
2023-01-23T23:47:40.903Z,70
